• Join FlightAware (Why Join?)
  • Login
  • US Flag 
01:26PM EDT


 

Airport Tracker/Info


-or-


 

Live Flight TrackerFlight Track Log ✈ N225SB ✈ 10-Nov-2013 ✈ KFTY - KBED

Flight Track Log - Related Links

Times and Time Zones

All times are in EST time to prevent confusion due to time zone crossing. See the N225SB flight status page for this flight to view local times or setup timezone preferences in your user account.

Time Position Orientation Groundspeed Altitude Reporting Facility
EST Latitude Longitude Course Direction KTS MPH feet Rate Location/Type
11:02AM 33.8833 -84.3000 267° West 91 105 1,200  Level Atlanta TRACON
11:04AM 33.8350 -84.0298 84° East  Level FlightAware Approximate
11:11AM 34.2377 -83.2053 48° Northeast  Level FlightAware Approximate
11:12AM 34.3095 -83.0952 54° Northeast  Level FlightAware Approximate
11:13AM 34.3749 -82.9795 51° Northeast  Level FlightAware Approximate
11:14AM 34.4478 -82.8701 51° Northeast  Level FlightAware Approximate
11:15AM 34.5203 -82.7603 55° Northeast  Level FlightAware Approximate
11:16AM 34.5865 -82.6445 55° Northeast  Level FlightAware Approximate
11:17AM 34.6537 -82.5296 55° Northeast  Level FlightAware Approximate
11:18AM 34.7226 -82.4161 51° Northeast  Level FlightAware Approximate
11:19AM 34.7932 -82.3041 53° Northeast  Level FlightAware Approximate
11:20AM 34.8633 -82.1915 53° Northeast  Level FlightAware Approximate
11:21AM 34.9333 -82.0786 53° Northeast  Level FlightAware Approximate
11:22AM 35.0032 -81.9656 53° Northeast  Level FlightAware Approximate
11:23AM 35.0648 -81.8460 61° Northeast  Level FlightAware Approximate
11:24AM 35.1237 -81.7241 56° Northeast  Level FlightAware Approximate
11:25AM 35.1885 -81.6064 58° Northeast  Level FlightAware Approximate
11:26AM 35.2492 -81.4853 58° Northeast  Level FlightAware Approximate
11:27AM 35.3097 -81.3641 59° Northeast  Level FlightAware Approximate
11:28AM 35.3737 -81.2455 55° Northeast  Level FlightAware Approximate
11:29AM 35.4399 -81.1286 55° Northeast  Level FlightAware Approximate
11:30AM 35.5060 -81.0115 55° Northeast  Level FlightAware Approximate
11:31AM 35.5707 -80.8932 58° Northeast  Level FlightAware Approximate
11:32AM 35.6328 -80.7726 58° Northeast  Level FlightAware Approximate
11:33AM 35.6948 -80.6519 58° Northeast  Level FlightAware Approximate
11:34AM 35.7566 -80.5310 58° Northeast  Level FlightAware Approximate
11:35AM 35.8183 -80.4099 58° Northeast  Level FlightAware Approximate
11:36AM 35.8799 -80.2886 58° Northeast  Level FlightAware Approximate
11:37AM 35.9414 -80.1671 58° Northeast  Level FlightAware Approximate
11:38AM 35.9989 -80.0426 61° Northeast  Level FlightAware Approximate
11:39AM 36.0636 -79.9244 48° Northeast  Level FlightAware Approximate
11:40AM 36.1403 -79.8167 49° Northeast  Level FlightAware Approximate
11:41AM 36.2170 -79.7088 49° Northeast  Level FlightAware Approximate
11:42AM 36.2935 -79.6007 49° Northeast  Level FlightAware Approximate
11:43AM 36.3699 -79.4923 49° Northeast  Level FlightAware Approximate
11:44AM 36.4463 -79.3838 49° Northeast  Level FlightAware Approximate
11:45AM 36.5225 -79.2750 49° Northeast  Level FlightAware Approximate
11:46AM 36.5989 -79.1663 49° Northeast  Level FlightAware Approximate
11:47AM 36.6752 -79.0573 49° Northeast  Level FlightAware Approximate
11:48AM 36.7514 -78.9481 49° Northeast  Level FlightAware Approximate
11:49AM 36.8274 -78.8388 49° Northeast  Level FlightAware Approximate
11:50AM 36.9034 -78.7292 49° Northeast  Level FlightAware Approximate
11:51AM 36.9793 -78.6193 49° Northeast  Level FlightAware Approximate
11:52AM 37.0550 -78.5092 50° Northeast  Level FlightAware Approximate
11:53AM 37.1298 -78.3980 50° Northeast  Level FlightAware Approximate
11:53AM 33.8667 -84.6333 345° North 264 304 5,000  Level Atlanta TRACON
11:54AM 37.2045 -78.2866 50° Northeast  Level FlightAware Approximate
11:54AM 33.8833 -84.5500 76° East 274 315 6,500  Level Atlanta TRACON
11:55AM 37.2790 -78.1749 50° Northeast  Level FlightAware Approximate
11:55AM 33.8833 -84.4500 90° East 297 342 7,700  Level Atlanta TRACON
11:56AM 37.3535 -78.0631 50° Northeast  Level FlightAware Approximate
11:56AM 33.8833 -84.3500 90° East 309 356 10,300  Level Atlanta TRACON
11:57AM 37.4279 -77.9510 50° Northeast  Level FlightAware Approximate
11:57AM 33.8833 -84.2667 90° East 315 362 12,900  Level Atlanta TRACON
11:58AM 33.8833 -84.1333 90° East 373 429 13,400 900 Climbing Atlanta TRACON
12:00PM 33.9047 -83.8261 85° East 408 470 16,200 1,260 Climbing Atlanta Center
12:01PM 33.9253 -83.6908 80° East 413 475 17,700 1,200 Climbing Atlanta Center
12:02PM 34.0000 -83.5778 51° Northeast 400 460 18,600 900 Climbing Atlanta Center
12:03PM 34.0831 -83.4494 52° Northeast 424 488 19,600 960 Climbing Atlanta Center
12:04PM 34.1594 -83.3283 53° Northeast 440 506 20,600 900 Climbing Atlanta Center
12:09PM 34.4930 -82.8030 53° Northeast 100 115 24,700 720 Climbing FlightAware
12:09PM 34.5020 -82.8180 306° West 100 115 24,700  Level FlightAware
12:10PM 34.5150 -82.8420 303° West 100 115 24,700  Level FlightAware
12:11PM 34.5240 -82.8560 308° West 100 115 24,700  Level FlightAware
12:11PM 34.5270 -82.8610 306° West 100 115 24,700  Level FlightAware
12:12PM 34.5390 -82.8820 305° West 100 115 24,700  Level FlightAware
12:13PM 34.5470 -82.8970 303° West 100 115 24,700 2,940 Level FlightAware
12:14PM 34.9228 -82.1136 303° West 463 533 30,500 2,640 Climbing Atlanta Center
12:15PM 35.0000 -81.9850 54° Northeast 463 533 31,000 240 Climbing Atlanta Center
12:16PM 35.0792 -81.8483 55° Northeast 475 547 31,000 420 Level Atlanta Center
12:17PM 35.1536 -81.7042 58° Northeast 488 562 31,900 840 Climbing Atlanta Center
12:22PM 35.5080 -81.0150 58° Northeast 100 115 36,300 780 Climbing FlightAware
12:23PM 35.5440 -80.9480 57° Northeast 100 115 36,700 240 Climbing FlightAware
12:23PM 35.5520 -80.9340 55° Northeast 100 115 36,700  Level FlightAware
12:24PM 35.5600 -80.9190 57° Northeast 100 115 36,700  Level FlightAware
12:25PM 35.5730 -80.8950 56° Northeast 100 115 36,700  Level FlightAware
12:26PM 35.5840 -80.8750 56° Northeast 100 115 36,700  Level FlightAware
12:27PM 35.5930 -80.8600 54° Northeast 100 115 36,700  Level FlightAware
12:27PM 35.6000 -80.8450 60° Northeast 100 115 36,700  Level FlightAware
12:28PM 35.6080 -80.8310 55° Northeast 100 115 36,700  Level FlightAware
12:28PM 35.6160 -80.8170 55° Northeast 100 115 36,700  Level FlightAware
12:29PM 35.6240 -80.8020 57° Northeast 100 115 36,700  Level FlightAware
12:30PM 35.6350 -80.7830 55° Northeast 100 115 36,700  Level FlightAware
12:31PM 35.6480 -80.7580 57° Northeast 100 115 36,700  Level FlightAware
12:32PM 35.6620 -80.7340 54° Northeast 100 115 36,700  Level FlightAware
12:32PM 35.6700 -80.7190 57° Northeast 100 115 36,700 2,100 Level FlightAware
12:34PM 36.3842 -79.5058 57° Northeast 448 516 41,000 1,740 Climbing Washington Center
12:35PM 36.4567 -79.3933 51° Northeast 453 521 41,000  Level Washington Center
12:36PM 36.5506 -79.2608 49° Northeast 460 529 41,000  Level Washington Center
12:37PM 36.6356 -79.1356 50° Northeast 466 536 41,000  Level Washington Center
12:38PM 36.7228 -79.0125 48° Northeast 471 542 41,000  Level Washington Center
12:39PM 36.8119 -78.8842 49° Northeast 471 542 41,000  Level Washington Center
12:40PM 36.8900 -78.7706 49° Northeast 471 542 41,000  Level Washington Center
12:41PM 36.9767 -78.6467 49° Northeast 471 542 41,000  Level Washington Center
12:42PM 37.0656 -78.5175 49° Northeast 471 542 41,000  Level Washington Center
12:43PM 37.1647 -78.3781 48° Northeast 477 549 41,000  Level Washington Center
12:44PM 37.2611 -78.2639 43° Northeast 477 549 41,000  Level Washington Center
12:45PM 37.3556 -78.1522 43° Northeast 471 542 41,000  Level Washington Center
12:46PM 37.4539 -78.0328 44° Northeast 466 536 41,000  Level Washington Center
12:47PM 37.5481 -77.9178 44° Northeast 466 536 41,000  Level Washington Center
12:48PM 37.6442 -77.8000 44° Northeast 466 536 41,000  Level Washington Center
12:49PM 37.7422 -77.6822 44° Northeast 472 543 41,000  Level Washington Center
12:50PM 37.8358 -77.5639 45° Northeast 472 543 41,000  Level Washington Center
12:51PM 37.9336 -77.4478 43° Northeast 472 543 41,000  Level Washington Center
12:52PM 38.0272 -77.3264 46° Northeast 477 549 41,000  Level Washington Center
12:53PM 38.1206 -77.2122 44° Northeast 470 541 41,000  Level Washington Center
12:54PM 38.2139 -77.0928 45° Northeast 470 541 41,000  Level Washington Center
12:55PM 38.3050 -76.9781 45° Northeast 470 541 41,000  Level Washington Center
12:56PM 38.3981 -76.8633 44° Northeast 464 534 41,000  Level Washington Center
12:57PM 38.4908 -76.7428 45° Northeast 457 526 41,000  Level Washington Center
12:58PM 38.5817 -76.6300 44° Northeast 457 526 41,000  Level Washington Center
12:59PM 38.6722 -76.5144 45° Northeast 457 526 41,000  Level Washington Center
01:00PM 38.7647 -76.3958 45° Northeast 457 526 41,000  Level Washington Center
01:01PM 38.8550 -76.2794 45° Northeast 462 532 41,000  Level Washington Center
01:02PM 38.9494 -76.1603 44° Northeast 462 532 41,000  Level Washington Center
01:03PM 39.0417 -76.0433 45° Northeast 462 532 41,000 -60 Level Washington Center
01:04PM 39.1358 -75.9233 45° Northeast 462 532 40,900  Descending Washington Center
01:05PM 39.2278 -75.8006 46° Northeast 462 532 41,000  Climbing Washington Center
01:06PM 39.3217 -75.6775 45° Northeast 462 532 41,000  Level Washington Center
01:07PM 39.4156 -75.5567 45° Northeast 462 532 41,000 -420 Level Washington Center
01:08PM 39.5092 -75.4303 46° Northeast 462 532 40,200 -840 Descending Washington Center
01:09PM 39.6111 -75.2981 45° Northeast 485 558 39,400 -900 Descending Washington Center
01:10PM 39.7108 -75.1653 46° Northeast 500 575 38,500 -1,080 Descending Washington Center
01:12PM 39.8925 -74.9186 46° Northeast 522 601 36,300 -1,200 Descending New York Center
01:13PM 40.0019 -74.7678 47° Northeast 528 608 35,000 -840 Descending New York Center
01:14PM 40.1047 -74.6272 46° Northeast 528 608 34,700 -780 Descending New York Center
01:15PM 40.2114 -74.4892 45° Northeast 533 613 33,500 -900 Descending New York Center
01:16PM 40.3233 -74.3672 40° Northeast 533 613 33,000 -840 Descending New York Center
01:17PM 40.4258 -74.2197 48° Northeast 527 606 31,900 -1,680 Descending New York Center
01:19PM 40.5642 -73.8789 62° Northeast 520 598 28,000 -1,860 Descending Boston Center
01:20PM 40.6297 -73.7150 62° Northeast 509 586 26,300 -1,680 Descending Boston Center
01:21PM 40.6906 -73.5569 63° Northeast 504 580 24,600 -1,680 Descending Boston Center
01:22PM 40.7586 -73.3919 61° Northeast 498 573 23,000 -840 Descending Boston Center
01:23PM 40.8336 -73.2603 53° Northeast 498 573 23,000 -840 Level Boston Center
01:24PM 40.9586 -73.1131 42° Northeast 504 580 21,400 -1,500 Descending Boston Center
01:25PM 41.0633 -73.0069 37° Northeast 479 551 20,100 -1,200 Descending Boston Center
01:26PM 41.1656 -72.9283 30° Northeast 457 526 19,000 -540 Descending Boston Center
01:27PM 41.2914 -72.8303 30° Northeast 456 525 19,000 -540 Level Boston Center
01:28PM 41.3975 -72.7450 31° Northeast 447 514 18,000 -1,920 Descending Boston Center
01:29PM 41.4936 -72.6678 31° Northeast 409 471 15,200 -1,500 Descending Boston Center
01:30PM 41.5886 -72.5922 31° Northeast 374 430 15,000 -180 Descending Boston Center
01:30PM 41.6083 -72.5761 31° Northeast 376 433 15,000 -1,020 Level Boston Center
01:31PM 41.6781 -72.5092 36° Northeast 390 449 14,000 -1,260 Descending Boston Center
01:31PM 41.7086 -72.4736 41° Northeast 391 450 13,500 -1,320 Descending Boston Center
01:32PM 41.7592 -72.4203 38° Northeast 382 440 12,700 -1,440 Descending Boston Center
01:32PM 41.7939 -72.3800 41° Northeast 367 422 12,100 -1,380 Descending Boston Center
01:33PM 41.8431 -72.3272 39° Northeast 369 425 11,300 -1,380 Descending Boston Center
01:33PM 41.8736 -72.2928 40° Northeast 371 427 10,700 -1,260 Descending Boston Center
01:34PM 41.9197 -72.2397 41° Northeast 363 418 10,000 -1,140 Descending Boston Center
01:34PM 41.9486 -72.2067 40° Northeast 297 342 9,500 -1,440 Descending Boston Center
01:35PM 41.9839 -72.1667 40° Northeast 305 351 8,600 -1,440 Descending Boston Center
01:35PM 42.0064 -72.1431 38° Northeast 318 366 8,300 -1,140 Descending Boston Center
01:36PM 42.0558 -72.0836 42° Northeast 313 360 7,500 -1,140 Descending Boston Center
01:36PM 42.0706 -72.0675 39° Northeast 305 351 7,200 -900 Descending Boston Center
01:37PM 42.1206 -72.0097 41° Northeast 276 318 6,500 -1,080 Descending Boston Center
01:38PM 42.1792 -71.9472 38° Northeast 290 334 5,400 -1,260 Descending Boston Center
01:38PM 42.1939 -71.9311 39° Northeast 289 333 5,000 -480 Descending Boston Center
01:39PM 42.2417 -71.8772 40° Northeast 288 331 4,900  Descending Boston Center
01:39PM 42.2508 -71.8697 31° Northeast 285 328 5,000  Climbing Boston Center
01:40PM 42.3017 -71.8089 42° Northeast 285 328 4,900  Descending Boston Center
01:41PM 42.3225 -71.7872 38° Northeast 277 319 5,000 60 Climbing Boston Center
01:41PM 42.3631 -71.7406 40° Northeast 279 321 5,000  Level Boston Center
01:42PM 42.3969 -71.6483 64° Northeast 282 325 5,000 -480 Level Boston Center
01:43PM 42.4333 -71.5667 59° Northeast 278 320 4,200 -1,140 Descending KA90
01:44PM 42.4667 -71.4833 62° Northeast 253 291 3,000 -780 Descending KA90
01:45PM 42.5000 -71.4167 56° Northeast 222 255 2,900 -360 Descending KA90
01:46PM 42.5000 -71.3500 90° East 221 254 2,400 -540 Descending KA90
01:47PM 42.5000 -71.2667 90° East 219 252 1,900 -600 Descending KA90
01:48PM 42.4833 -71.2167 114° Southeast 157 181 1,300 -720 Descending KA90
01:49PM 42.4667 -71.2500 236° Southwest 125 144 500 -840 Descending KA90
01:51PM 42.4667 -71.2833 270° West  Level FlightAware Approximate
01:58PM 42.4699 -71.2890 270° West  Level Estimated